createdAt,value
2023-05-20T00:01:37.223Z,97238.81
2023-05-20T00:04:40.787Z,97240.09
2023-05-20T00:07:42.492Z,97239.09
2023-05-20T00:10:44.162Z,97239.09
2023-05-20T00:13:45.761Z,97240.75
2023-05-20T00:16:47.335Z,97246.88
2023-05-20T00:19:48.908Z,97243.38
2023-05-20T00:22:50.446Z,97242.00
2023-05-20T00:25:52.056Z,97240.75
2023-05-20T00:28:53.589Z,97232.97
2023-05-20T00:31:55.459Z,97238.72
2023-05-20T00:35:01.891Z,97222.03
2023-05-20T00:38:03.493Z,97226.97
2023-05-20T00:41:05.058Z,97226.97
2023-05-20T00:44:06.603Z,97225.78
2023-05-20T00:47:08.183Z,97224.38
2023-05-20T00:50:10.688Z,97220.41
2023-05-20T00:53:17.081Z,97217.94
2023-05-20T00:56:18.888Z,97207.34
2023-05-20T00:59:21.076Z,97204.88
2023-05-20T01:02:23.059Z,97198.47
2023-05-20T01:05:25.020Z,97191.28
2023-05-20T01:08:27.135Z,97203.47
2023-05-20T01:11:38.319Z,97203.13
2023-05-20T01:14:50.719Z,97199.22
2023-05-20T01:17:58.410Z,97200.84
2023-05-20T01:21:02.574Z,97197.56
2023-05-20T01:24:05.855Z,97194.44
2023-05-20T01:27:13.478Z,97191.00
2023-05-20T01:30:16.954Z,97196.34
2023-05-20T01:33:20.917Z,97197.03
2023-05-20T01:36:23.160Z,97187.88
2023-05-20T01:39:26.302Z,97191.91
2023-05-20T01:42:29.033Z,97189.44
2023-05-20T01:45:31.253Z,97180.47
2023-05-20T01:48:34.745Z,97180.91
2023-05-20T01:51:36.941Z,97179.84
2023-05-20T01:54:38.459Z,97177.75
2023-05-20T01:57:40.393Z,97169.53
2023-05-20T02:00:42.035Z,97169.53
2023-05-20T02:03:43.642Z,97175.19
2023-05-20T02:06:45.903Z,97167.88
2023-05-20T02:09:48.054Z,97166.34
2023-05-20T02:12:49.564Z,97164.78
2023-05-20T02:15:51.415Z,97156.00
2023-05-20T02:18:53.162Z,97159.50
2023-05-20T02:21:54.743Z,97167.69
2023-05-20T02:24:56.246Z,97167.88
2023-05-20T02:27:57.833Z,97168.06
2023-05-20T02:30:59.382Z,97166.06
2023-05-20T02:34:01.272Z,97160.22
2023-05-20T02:37:03.610Z,97160.84
2023-05-20T02:40:06.540Z,97167.78
2023-05-20T02:43:08.091Z,97167.16
2023-05-20T02:46:09.862Z,97156.75
2023-05-20T02:49:11.435Z,97161.88
2023-05-20T02:52:13.001Z,97153.66
2023-05-20T02:55:15.550Z,97149.91
2023-05-20T02:58:17.320Z,97153.50
2023-05-20T03:01:18.984Z,97149.94
2023-05-20T03:04:21.728Z,97142.47
2023-05-20T03:07:23.416Z,97147.38
2023-05-20T03:10:24.905Z,97152.94
2023-05-20T03:13:26.444Z,97145.53
2023-05-20T03:16:28.368Z,97143.13
2023-05-20T03:19:30.294Z,97137.47
2023-05-20T03:22:31.850Z,97139.69
2023-05-20T03:25:33.882Z,97126.56
2023-05-20T03:28:36.348Z,97131.38
2023-05-20T03:31:38.258Z,97128.94
2023-05-20T03:34:39.893Z,97127.00
2023-05-20T03:37:41.482Z,97117.75
2023-05-20T03:40:43.171Z,97125.78
2023-05-20T03:43:44.889Z,97116.03
2023-05-20T03:46:46.630Z,97120.50
2023-05-20T03:49:48.591Z,97128.94
2023-05-20T03:52:50.136Z,97131.41
2023-05-20T03:55:54.353Z,97139.97
2023-05-20T03:58:56.400Z,97133.75
2023-05-20T04:01:58.005Z,97129.47
2023-05-20T04:05:02.264Z,97135.22
2023-05-20T04:08:05.104Z,97128.28
2023-05-20T04:11:06.801Z,97129.78
2023-05-20T04:14:10.474Z,97128.41
2023-05-20T04:17:12.431Z,97115.84
2023-05-20T04:20:14.513Z,97119.13
2023-05-20T04:23:16.722Z,97116.81
2023-05-20T04:26:18.300Z,97121.94
2023-05-20T04:29:20.013Z,97115.97
2023-05-20T04:32:21.606Z,97117.78
2023-05-20T04:35:26.038Z,97118.72
2023-05-20T04:38:30.423Z,97130.88
2023-05-20T04:41:32.170Z,97135.63
2023-05-20T04:44:34.337Z,97134.84
2023-05-20T04:47:38.705Z,97135.16
2023-05-20T04:50:41.845Z,97128.22
2023-05-20T04:53:46.172Z,97128.22
2023-05-20T04:56:47.940Z,97130.03
2023-05-20T04:59:49.538Z,97129.94
2023-05-20T05:02:51.753Z,97135.25
2023-05-20T05:05:57.773Z,97132.19
2023-05-20T05:09:02.820Z,97124.16
2023-05-20T05:12:05.210Z,97122.56
2023-05-20T05:15:07.407Z,97119.50
2023-05-20T05:18:09.491Z,97123.94
2023-05-20T05:21:11.535Z,97108.91
2023-05-20T05:24:13.065Z,97111.56
2023-05-20T05:27:15.043Z,97103.28
2023-05-20T05:30:16.795Z,97109.72
2023-05-20T05:33:19.027Z,97106.06
2023-05-20T05:36:20.564Z,97110.22
2023-05-20T05:39:22.204Z,97108.91
2023-05-20T05:42:23.890Z,97105.53
2023-05-20T05:45:25.794Z,97108.22
2023-05-20T05:48:27.434Z,97104.22
2023-05-20T05:51:29.117Z,97098.00
2023-05-20T05:54:31.943Z,97098.13
2023-05-20T05:57:33.775Z,97105.56
2023-05-20T06:00:36.639Z,97092.16
2023-05-20T06:03:38.282Z,97087.34
2023-05-20T06:06:40.944Z,97081.84
2023-05-20T06:09:42.454Z,97076.28
2023-05-20T06:12:44.019Z,97080.50
2023-05-20T06:15:46.252Z,97086.06
2023-05-20T06:18:50.329Z,97089.16
2023-05-20T06:21:52.967Z,97088.78
2023-05-20T06:24:56.892Z,97075.50
2023-05-20T06:27:58.384Z,97077.06
2023-05-20T06:31:00.329Z,97086.66
2023-05-20T06:34:05.113Z,97074.31
2023-05-20T06:37:06.669Z,97066.44
2023-05-20T06:40:09.310Z,97063.31
2023-05-20T06:43:11.718Z,97065.19
2023-05-20T06:46:28.147Z,97072.47
2023-05-20T06:49:34.363Z,97060.56
2023-05-20T06:52:36.021Z,97060.13
2023-05-20T06:55:38.140Z,97064.22
2023-05-20T06:58:40.210Z,97060.72
2023-05-20T07:01:41.915Z,97059.03
2023-05-20T07:04:43.750Z,97060.75
2023-05-20T07:07:45.618Z,97062.53
2023-05-20T07:10:47.289Z,97068.78
2023-05-20T07:13:53.511Z,97062.66
2023-05-20T07:16:55.388Z,97061.00
2023-05-20T07:19:57.077Z,97058.06
2023-05-20T07:22:58.766Z,97054.25
2023-05-20T07:26:07.150Z,97052.56
2023-05-20T07:29:10.251Z,97043.94
2023-05-20T07:32:13.391Z,97039.38
2023-05-20T07:35:15.063Z,97036.19
2023-05-20T07:38:16.733Z,97028.34
2023-05-20T07:41:21.229Z,97015.34
2023-05-20T07:44:23.241Z,97028.53
2023-05-20T07:47:26.345Z,97031.31
2023-05-20T07:50:28.390Z,97023.75
2023-05-20T07:53:29.973Z,97026.41
2023-05-20T07:56:33.337Z,97028.28
2023-05-20T07:59:35.361Z,97025.25
2023-05-20T08:02:37.322Z,97022.06
2023-05-20T08:05:41.607Z,97013.97
2023-05-20T08:08:43.461Z,97016.09
2023-05-20T08:11:52.830Z,97016.19
2023-05-20T08:14:54.472Z,97020.13
2023-05-20T08:17:56.648Z,97013.19
2023-05-20T08:20:58.850Z,97012.91
2023-05-20T08:24:01.703Z,97011.25
2023-05-20T08:27:04.239Z,97016.25
2023-05-20T08:30:09.922Z,97010.34
2023-05-20T08:33:13.153Z,97010.09
2023-05-20T08:36:15.145Z,97014.81
2023-05-20T08:39:17.444Z,97012.13
2023-05-20T08:42:25.308Z,97020.06
2023-05-20T08:45:31.769Z,97023.41
2023-05-20T08:48:37.866Z,97022.16
2023-05-20T08:51:40.152Z,97021.69
2023-05-20T08:54:48.115Z,97019.00
2023-05-20T08:57:55.835Z,97025.78
2023-05-20T09:00:58.856Z,97030.25
2023-05-20T09:04:00.500Z,97026.72
2023-05-20T09:07:02.026Z,97026.38
2023-05-20T09:10:05.163Z,97029.53
2023-05-20T09:13:08.004Z,97027.56
2023-05-20T09:16:11.056Z,97026.22
2023-05-20T09:19:12.811Z,97026.63
2023-05-20T09:22:14.341Z,97027.56
2023-05-20T09:25:21.606Z,97025.53
2023-05-20T09:28:27.612Z,97026.47
2023-05-20T09:31:33.601Z,97016.41
2023-05-20T09:34:35.245Z,97022.97
2023-05-20T09:37:37.717Z,97025.81
2023-05-20T09:40:42.737Z,97016.00
2023-05-20T09:43:44.730Z,97013.19
2023-05-20T09:46:47.705Z,97013.94
2023-05-20T09:50:14.959Z,97014.63
2023-05-20T09:53:17.233Z,97011.81
2023-05-20T09:56:21.441Z,97011.56
2023-05-20T09:59:24.569Z,97007.38
2023-05-20T10:02:26.215Z,97006.28
2023-05-20T10:05:32.071Z,97001.66
2023-05-20T10:08:58.232Z,97012.84
2023-05-20T10:12:44.605Z,96996.91
2023-05-20T10:16:01.764Z,96988.94
2023-05-20T10:19:32.527Z,96989.97
2023-05-20T10:22:34.112Z,96996.59
2023-05-20T10:25:35.951Z,97000.56
2023-05-20T10:28:40.385Z,96988.88
2023-05-20T10:31:48.537Z,96990.59
2023-05-20T10:34:50.982Z,96977.66
2023-05-20T10:37:54.373Z,96979.94
2023-05-20T10:40:57.321Z,96982.84
2023-05-20T10:44:06.553Z,96978.91
2023-05-20T10:47:24.714Z,96978.09
2023-05-20T10:50:35.048Z,96983.72
2023-05-20T10:53:41.616Z,96981.63
2023-05-20T10:56:52.432Z,96970.97
2023-05-20T10:59:55.269Z,96965.00
2023-05-20T11:02:57.226Z,96970.81
2023-05-20T11:05:58.804Z,96967.63
2023-05-20T11:09:07.273Z,96972.09
2023-05-20T11:12:08.766Z,96969.53
2023-05-20T11:15:13.118Z,96977.63
2023-05-20T11:18:17.773Z,96970.59
2023-05-20T11:21:20.463Z,96965.47
2023-05-20T11:24:27.219Z,96955.22
2023-05-20T11:27:28.688Z,96949.53
2023-05-20T11:30:30.862Z,96945.47
2023-05-20T11:33:32.379Z,96927.47
2023-05-20T11:36:33.981Z,96921.16
2023-05-20T11:39:35.523Z,96935.50
2023-05-20T11:42:36.991Z,96935.22
2023-05-20T11:45:40.667Z,96924.44
2023-05-20T11:48:51.805Z,96922.25
2023-05-20T11:51:53.372Z,96918.25
2023-05-20T11:54:54.973Z,96913.28
2023-05-20T11:57:57.468Z,96913.56
2023-05-20T12:01:09.511Z,96899.56
2023-05-20T12:04:21.041Z,96907.66
2023-05-20T12:07:23.375Z,96900.44
2023-05-20T12:10:24.902Z,96902.25
2023-05-20T12:13:26.480Z,96902.25
2023-05-20T12:16:28.757Z,96907.16
2023-05-20T12:19:30.588Z,96904.19
2023-05-20T12:22:32.226Z,96894.97
2023-05-20T12:25:33.780Z,96883.44
2023-05-20T12:28:35.418Z,96874.66
2023-05-20T12:31:36.959Z,96869.78
2023-05-20T12:34:38.492Z,96871.22
2023-05-20T12:37:44.109Z,96866.53
2023-05-20T12:40:45.653Z,96859.31
2023-05-20T12:43:47.152Z,96869.59
2023-05-20T12:46:48.810Z,96864.19
2023-05-20T12:49:50.330Z,96856.66
2023-05-20T12:52:51.878Z,96856.69
2023-05-20T12:55:53.614Z,96849.09
2023-05-20T12:58:55.191Z,96856.13
2023-05-20T13:04:58.352Z,96853.72
2023-05-20T13:07:59.850Z,96858.56
2023-05-20T13:11:01.371Z,96860.91
2023-05-20T13:14:02.963Z,96857.16
2023-05-20T13:17:05.037Z,96844.28
2023-05-20T13:20:07.430Z,96850.28
2023-05-20T13:23:09.233Z,96844.63
2023-05-20T13:26:10.843Z,96850.31
2023-05-20T13:29:12.993Z,96852.75
2023-05-20T13:32:14.562Z,96843.75
2023-05-20T13:35:16.854Z,96850.13
2023-05-20T13:38:18.494Z,96839.84
2023-05-20T13:41:20.339Z,96839.31
2023-05-20T13:44:21.859Z,96833.59
2023-05-20T13:47:23.441Z,96829.59
2023-05-20T13:50:26.464Z,96839.31
2023-05-20T13:53:28.659Z,96846.84
2023-05-20T13:56:30.321Z,96837.94
2023-05-20T13:59:31.810Z,96836.63
2023-05-20T14:02:33.358Z,96838.25
2023-05-20T14:05:35.134Z,96835.53
2023-05-20T14:08:36.690Z,96832.53
2023-05-20T14:11:38.359Z,96836.53
2023-05-20T14:14:40.216Z,96825.69
2023-05-20T14:17:41.716Z,96817.00
2023-05-20T14:20:43.910Z,96820.19
2023-05-20T14:23:45.572Z,96819.84
2023-05-20T14:26:47.142Z,96822.16
2023-05-20T14:29:48.856Z,96815.84
2023-05-20T14:32:50.736Z,96817.19
2023-05-20T14:35:52.332Z,96818.25
2023-05-20T14:38:53.885Z,96837.78
2023-05-20T14:41:55.425Z,96832.00
2023-05-20T14:44:56.920Z,96833.44
2023-05-20T14:47:58.463Z,96831.47
2023-05-20T14:50:59.998Z,96828.56
2023-05-20T14:54:01.488Z,96830.19
2023-05-20T14:57:04.112Z,96822.94
2023-05-20T15:00:10.492Z,96837.81
2023-05-20T15:03:12.144Z,96835.06
2023-05-20T15:06:13.812Z,96841.81
2023-05-20T15:09:15.347Z,96852.84
2023-05-20T15:12:16.859Z,96849.34
2023-05-20T15:15:18.327Z,96844.75
2023-05-20T15:18:19.861Z,96838.00
2023-05-20T15:21:21.568Z,96838.53
2023-05-20T15:24:23.119Z,96837.19
2023-05-20T15:27:24.761Z,96837.72
2023-05-20T15:30:26.290Z,96836.13
2023-05-20T15:33:27.882Z,96835.28
2023-05-20T15:36:31.343Z,96842.00
2023-05-20T15:39:36.622Z,96843.38
2023-05-20T15:42:38.116Z,96835.78
2023-05-20T15:45:39.775Z,96845.25
2023-05-20T15:48:41.406Z,96846.03
2023-05-20T15:51:49.330Z,96853.56
2023-05-20T15:55:00.940Z,96854.84
2023-05-20T15:58:02.512Z,96852.41
2023-05-20T16:01:04.131Z,96841.28
2023-05-20T16:04:05.745Z,96839.66
2023-05-20T16:07:07.372Z,96833.25
2023-05-20T16:10:09.780Z,96835.47
2023-05-20T16:13:11.427Z,96841.44
2023-05-20T16:16:13.711Z,96833.13
2023-05-20T16:19:15.487Z,96832.91
2023-05-20T16:22:22.862Z,96834.00
2023-05-20T16:25:24.504Z,96848.00
2023-05-20T16:28:26.188Z,96839.94
2023-05-20T16:31:27.748Z,96843.44
2023-05-20T16:34:29.295Z,96838.84
2023-05-20T16:37:30.894Z,96837.13
2023-05-20T16:40:32.664Z,96841.50
2023-05-20T16:43:34.344Z,96834.72
2023-05-20T16:46:36.021Z,96834.88
2023-05-20T16:49:37.742Z,96838.22
2023-05-20T16:52:39.374Z,96841.06
2023-05-20T16:55:41.251Z,96837.06
2023-05-20T16:58:42.789Z,96844.28
2023-05-20T17:01:45.552Z,96837.34
2023-05-20T17:04:47.177Z,96836.50
2023-05-20T17:07:49.793Z,96843.94
2023-05-20T17:10:54.014Z,96844.81
2023-05-20T17:13:55.889Z,96844.25
2023-05-20T17:16:57.494Z,96849.88
2023-05-20T17:19:59.053Z,96846.84
2023-05-20T17:23:00.828Z,96836.44
2023-05-20T17:26:02.433Z,96831.44
2023-05-20T17:29:04.036Z,96843.19
2023-05-20T17:32:06.255Z,96840.00
2023-05-20T17:35:08.427Z,96844.41
2023-05-20T17:38:10.054Z,96843.75
2023-05-20T17:41:11.655Z,96844.31
2023-05-20T17:44:13.338Z,96853.03
2023-05-20T17:47:14.853Z,96855.59
2023-05-20T17:50:16.724Z,96856.88
2023-05-20T17:53:19.707Z,96862.44
2023-05-20T17:56:23.415Z,96860.63
2023-05-20T17:59:25.023Z,96870.72
2023-05-20T18:02:27.074Z,96866.63
2023-05-20T18:05:28.677Z,96871.34
2023-05-20T18:08:30.487Z,96864.44
2023-05-20T18:11:33.473Z,96875.84
2023-05-20T18:14:35.080Z,96867.31
2023-05-20T18:17:38.661Z,96864.19
2023-05-20T18:20:41.942Z,96856.38
2023-05-20T18:23:43.487Z,96858.56
2023-05-20T18:26:45.913Z,96860.25
2023-05-20T18:29:47.494Z,96861.16
2023-05-20T18:32:49.804Z,96865.56
2023-05-20T18:35:54.369Z,96869.06
2023-05-20T18:38:56.406Z,96867.50
2023-05-20T18:41:57.971Z,96866.97
2023-05-20T18:44:59.537Z,96872.84
2023-05-20T18:48:01.271Z,96879.25
2023-05-20T18:51:02.977Z,96876.09
2023-05-20T18:54:04.810Z,96880.53
2023-05-20T18:57:08.026Z,96874.72
2023-05-20T19:00:12.236Z,96869.59
2023-05-20T19:03:14.082Z,96874.72
2023-05-20T19:06:16.502Z,96877.41
2023-05-20T19:09:18.625Z,96873.91
2023-05-20T19:12:20.448Z,96865.03
2023-05-20T19:15:21.959Z,96870.38
2023-05-20T19:18:23.921Z,96872.25
2023-05-20T19:21:25.679Z,96868.28
2023-05-20T19:24:28.971Z,96869.25
2023-05-20T19:27:30.522Z,96865.38
2023-05-20T19:30:32.722Z,96877.59
2023-05-20T19:33:34.448Z,96874.88
2023-05-20T19:36:38.057Z,96881.03
2023-05-20T19:39:39.637Z,96876.50
2023-05-20T19:42:41.198Z,96874.97
2023-05-20T19:45:42.844Z,96875.16
2023-05-20T19:48:44.434Z,96880.78
2023-05-20T19:51:46.431Z,96885.16
2023-05-20T19:54:47.993Z,96880.75
2023-05-20T19:57:53.301Z,96886.69
2023-05-20T20:00:55.000Z,96878.94
2023-05-20T20:03:56.676Z,96880.56
2023-05-20T20:06:58.218Z,96878.75
2023-05-20T20:09:59.795Z,96877.00
2023-05-20T20:13:01.414Z,96874.53
2023-05-20T20:16:03.143Z,96868.91
2023-05-20T20:19:05.162Z,96882.34
2023-05-20T20:22:10.194Z,96876.53
2023-05-20T20:25:15.617Z,96879.03
2023-05-20T20:28:17.259Z,96880.72
2023-05-20T20:31:18.876Z,96881.59
2023-05-20T20:34:20.570Z,96878.69
2023-05-20T20:37:23.106Z,96883.41
2023-05-20T20:40:26.017Z,96875.81
2023-05-20T20:43:28.840Z,96874.41
2023-05-20T20:46:33.467Z,96871.78
2023-05-20T20:49:35.144Z,96869.13
2023-05-20T20:52:38.566Z,96863.50
2023-05-20T20:55:41.327Z,96862.28
2023-05-20T20:58:44.941Z,96860.88
2023-05-20T21:01:46.514Z,96857.00
2023-05-20T21:04:48.301Z,96854.16
2023-05-20T21:07:50.039Z,96851.34
2023-05-20T21:10:51.642Z,96842.31
2023-05-20T21:13:53.219Z,96837.81
2023-05-20T21:16:54.810Z,96848.47
2023-05-20T21:19:56.382Z,96837.03
2023-05-20T21:22:57.929Z,96846.88
2023-05-20T21:25:59.506Z,96835.44
2023-05-20T21:29:01.196Z,96835.66
2023-05-20T21:32:02.806Z,96837.91
2023-05-20T21:35:04.789Z,96831.81
2023-05-20T21:38:06.325Z,96834.66
2023-05-20T21:41:08.320Z,96829.16
2023-05-20T21:44:09.861Z,96835.66
2023-05-20T21:47:11.366Z,96826.88
2023-05-20T21:50:13.079Z,96820.31
2023-05-20T21:53:14.763Z,96816.59
2023-05-20T21:56:16.387Z,96814.59
2023-05-20T21:59:17.905Z,96808.44
2023-05-20T22:02:19.486Z,96805.47
2023-05-20T22:05:21.250Z,96799.69
2023-05-20T22:08:22.845Z,96799.28
2023-05-20T22:11:24.460Z,96802.53
2023-05-20T22:14:27.282Z,96800.47
2023-05-20T22:17:29.949Z,96789.19
2023-05-20T22:20:33.887Z,96787.31
2023-05-20T22:23:35.538Z,96787.91
2023-05-20T22:26:37.766Z,96780.00
2023-05-20T22:29:39.294Z,96770.00
2023-05-20T22:32:41.267Z,96771.25
2023-05-20T22:35:42.877Z,96779.38
2023-05-20T22:38:44.595Z,96782.81
2023-05-20T22:41:46.090Z,96782.38
2023-05-20T22:44:47.716Z,96774.81
2023-05-20T22:47:49.293Z,96781.13
2023-05-20T22:50:51.250Z,96783.59
2023-05-20T22:53:53.000Z,96784.66
2023-05-20T22:56:57.990Z,96780.59
2023-05-20T23:00:00.037Z,96782.00
2023-05-20T23:03:01.642Z,96772.63
2023-05-20T23:06:03.685Z,96776.00
2023-05-20T23:09:05.251Z,96774.97
2023-05-20T23:12:07.274Z,96781.06
2023-05-20T23:15:09.688Z,96769.56
2023-05-20T23:18:11.392Z,96775.66
2023-05-20T23:21:14.359Z,96769.34
2023-05-20T23:24:16.735Z,96769.41
2023-05-20T23:27:18.299Z,96763.03
2023-05-20T23:30:19.859Z,96761.00
2023-05-20T23:33:25.062Z,96765.25
2023-05-20T23:36:29.000Z,96754.44
2023-05-20T23:39:30.684Z,96759.63
2023-05-20T23:42:32.213Z,96755.91
2023-05-20T23:45:33.843Z,96759.38
2023-05-20T23:48:36.597Z,96746.72
2023-05-20T23:51:38.218Z,96751.66
2023-05-20T23:54:39.894Z,96747.16
2023-05-20T23:57:41.568Z,96741.84
